Time;durP1;ratioP1;P1;durP2;ratioP2;P2;SDS_P1;SDS_P2;PMS_P1;PMS_P2;Temp;Humidity;BMP_temperature;BMP_pressure;BME280_temperature;BME280_humidity;BME280_pressure;Samples;Min_cycle;Max_cycle;Signal;HPM_P1;HPM_P2
2023/08/18 00:00:14;;;;;;;6.57;5.47;;;19.00;99.90;;;19.66;100.00;97996.97;10391068;28;20729;-69
2023/08/18 00:05:18;;;;;;;7.82;6.13;;;18.90;99.90;;;19.49;100.00;98005.19;10389438;28;20320;-69
2023/08/18 00:10:22;;;;;;;6.95;6.35;;;18.80;99.90;;;19.44;100.00;98016.28;10394393;28;20594;-69
2023/08/18 00:15:25;;;;;;;6.53;5.90;;;18.70;99.90;;;19.28;100.00;98005.53;10398115;28;20230;-69
2023/08/18 00:20:30;;;;;;;6.85;6.20;;;18.60;99.90;;;19.28;100.00;98000.34;10398233;28;20222;-69
2023/08/18 00:25:33;;;;;;;5.88;5.10;;;18.50;99.90;;;19.26;100.00;98001.19;10403399;28;20237;-69
2023/08/18 00:30:36;;;;;;;8.52;6.25;;;18.50;99.90;;;19.08;100.00;98001.56;10393826;28;20831;-68
2023/08/18 00:35:41;;;;;;;7.32;6.63;;;18.40;99.90;;;19.02;100.00;97996.22;10399750;28;20794;-69
2023/08/18 00:40:44;;;;;;;7.53;6.63;;;18.30;99.90;;;18.89;100.00;97993.31;10404030;28;20228;-68
2023/08/18 00:45:47;;;;;;;6.28;5.78;;;18.20;99.90;;;18.88;100.00;97988.09;10396681;28;21162;-69
2023/08/18 00:50:53;;;;;;;7.00;6.40;;;18.20;99.90;;;18.94;100.00;97992.56;10400100;28;20222;-69
2023/08/18 00:55:56;;;;;;;7.13;6.07;;;18.20;99.90;;;18.73;100.00;97998.88;10400951;28;20248;-69
2023/08/18 01:00:59;;;;;;;8.38;6.20;;;18.00;99.90;;;18.68;100.00;97985.84;10399862;28;20772;-68
2023/08/18 01:06:03;;;;;;;6.70;6.03;;;18.00;99.90;;;18.77;100.00;97984.34;10398527;28;20715;-68
2023/08/18 01:11:21;;;;;;;6.35;5.57;;;18.00;99.90;;;18.77;100.00;97982.66;10401545;28;20241;-69
2023/08/18 01:16:28;;;;;;;6.43;5.82;;;18.00;99.90;;;18.83;100.00;97982.81;10395798;28;20231;-69
2023/08/18 01:21:34;;;;;;;6.25;5.75;;;18.00;99.90;;;18.79;100.00;97978.34;10396886;28;20773;-70
2023/08/18 01:26:39;;;;;;;6.75;5.75;;;18.00;99.90;;;18.78;100.00;97973.16;10398772;28;20233;-70
2023/08/18 01:31:42;;;;;;;5.97;5.32;;;18.00;99.90;;;18.69;100.00;97974.63;10398087;28;20244;-69
2023/08/18 01:36:47;;;;;;;6.65;6.05;;;18.00;99.90;;;18.65;100.00;97969.31;10397876;28;20229;-69
2023/08/18 01:41:53;;;;;;;6.75;6.15;;;17.90;99.90;;;18.61;100.00;97963.19;10397113;28;20650;-69
2023/08/18 01:46:56;;;;;;;6.93;5.97;;;17.90;99.90;;;18.64;100.00;97957.22;10396823;28;20234;-69
2023/08/18 01:51:59;;;;;;;6.90;6.20;;;17.90;99.90;;;18.60;100.00;97950.19;10398470;28;20715;-70
2023/08/18 01:57:04;;;;;;;7.47;6.28;;;17.80;99.90;;;18.53;100.00;97954.31;10397491;28;20305;-69
2023/08/18 02:02:07;;;;;;;7.88;5.60;;;17.80;99.90;;;18.45;100.00;97936.00;10393454;28;20233;-70
2023/08/18 02:07:10;;;;;;;6.18;5.43;;;17.60;99.90;;;18.31;100.00;97942.50;10395161;28;20230;-69
2023/08/18 02:12:15;;;;;;;5.68;5.28;;;17.50;99.90;;;18.23;100.00;97933.69;10396936;28;20229;-69
2023/08/18 02:17:18;;;;;;;6.57;5.90;;;17.50;99.90;;;18.05;100.00;97939.19;10394990;28;20239;-69
2023/08/18 02:22:21;;;;;;;6.78;5.70;;;17.40;99.90;;;18.03;100.00;97925.34;10393525;28;20229;-69
2023/08/18 02:27:25;;;;;;;7.13;6.07;;;17.30;99.90;;;18.07;100.00;97928.88;10394703;28;20531;-69
2023/08/18 02:32:29;;;;;;;5.70;5.20;;;17.30;99.90;;;17.98;100.00;97925.19;10393715;28;20692;-69
2023/08/18 02:37:33;;;;;;;5.55;4.90;;;17.30;99.90;;;17.85;100.00;97925.66;10393330;28;20230;-69
2023/08/18 02:42:37;;;;;;;6.38;5.72;;;17.10;99.90;;;17.94;100.00;97925.06;10398443;28;20926;-69
2023/08/18 02:47:40;;;;;;;6.30;5.70;;;17.20;99.90;;;17.97;100.00;97920.88;10391912;28;20872;-69
2023/08/18 02:52:43;;;;;;;7.45;5.63;;;17.20;99.90;;;18.06;100.00;97919.38;10390136;28;20233;-70
2023/08/18 02:57:48;;;;;;;5.82;5.25;;;17.30;99.90;;;17.96;100.00;97919.09;10394344;28;20232;-69
2023/08/18 03:02:51;;;;;;;6.18;5.13;;;17.20;99.90;;;17.84;100.00;97911.00;10387029;28;20226;-69
2023/08/18 03:07:54;;;;;;;6.18;5.35;;;17.10;99.90;;;17.66;100.00;97908.72;10390711;28;20236;-69
2023/08/18 03:13:01;;;;;;;5.70;5.15;;;17.00;99.90;;;17.73;100.00;97900.28;10399301;28;20610;-69
2023/08/18 03:18:05;;;;;;;7.18;5.72;;;16.90;99.90;;;17.58;100.00;97894.69;10395033;28;20241;-69
2023/08/18 03:23:08;;;;;;;6.72;5.20;;;16.90;99.90;;;17.58;100.00;97898.97;10392872;28;20328;-69
2023/08/18 03:28:12;;;;;;;5.30;4.78;;;16.80;99.90;;;17.61;100.00;97899.06;10387236;28;20229;-70
2023/08/18 03:33:15;;;;;;;5.13;4.72;;;16.90;99.90;;;17.65;100.00;97895.72;10387025;28;20230;-69
2023/08/18 03:38:19;;;;;;;7.55;5.93;;;16.80;99.90;;;17.58;100.00;97898.97;10391400;28;20303;-69
2023/08/18 03:43:23;;;;;;;8.38;5.45;;;16.80;99.90;;;17.46;100.00;97905.53;10391925;28;20615;-69
2023/08/18 03:48:26;;;;;;;5.88;5.07;;;16.70;99.90;;;17.11;100.00;97896.66;10392914;28;20616;-69
2023/08/18 03:53:29;;;;;;;5.80;5.20;;;16.50;99.90;;;17.18;100.00;97902.91;10399590;28;20226;-69
2023/08/18 03:58:34;;;;;;;6.88;6.25;;;16.50;99.90;;;17.32;100.00;97901.63;10400734;28;20229;-70
2023/08/18 04:03:39;;;;;;;5.20;4.75;;;16.60;99.90;;;17.13;100.00;97907.03;10397684;28;20243;-69
2023/08/18 04:08:44;;;;;;;8.30;5.22;;;16.50;99.90;;;17.18;100.00;97906.38;10396448;28;21306;-69
2023/08/18 04:13:48;;;;;;;4.75;4.35;;;16.50;99.90;;;17.25;100.00;97922.94;10399364;28;20230;-69
2023/08/18 04:18:51;;;;;;;10.00;5.72;;;16.60;99.90;;;17.38;100.00;97919.91;10398589;28;20222;-70
2023/08/18 04:23:55;;;;;;;5.28;4.82;;;16.60;99.90;;;17.40;100.00;97919.94;10434020;22;20693;-68
2023/08/18 04:28:59;;;;;;;6.38;5.07;;;16.60;99.90;;;17.40;100.00;97923.44;10354284;28;20227;-68
2023/08/18 04:34:03;;;;;;;5.60;5.07;;;16.70;99.90;;;17.36;100.00;97918.97;10355265;28;20226;-68
2023/08/18 04:39:06;;;;;;;6.43;5.43;;;16.60;99.90;;;17.30;100.00;97923.97;10362735;28;20230;-68
2023/08/18 04:44:10;;;;;;;5.65;5.13;;;16.60;99.90;;;17.37;100.00;97925.91;10355881;28;20728;-68
2023/08/18 04:49:14;;;;;;;6.57;5.13;;;16.60;99.90;;;17.30;100.00;97923.97;10353374;28;20222;-68
2023/08/18 04:54:17;;;;;;;5.07;4.72;;;16.60;99.90;;;17.38;100.00;97925.06;10361638;28;20237;-68
2023/08/18 04:59:22;;;;;;;4.93;4.53;;;16.60;99.90;;;17.45;100.00;97924.44;10361033;28;20234;-68
2023/08/18 05:04:25;;;;;;;6.20;5.03;;;16.70;99.90;;;17.48;100.00;97927.13;10352254;28;20234;-68
2023/08/18 05:09:28;;;;;;;6.55;5.38;;;16.70;99.90;;;17.70;100.00;97930.34;10343746;28;20249;-68
2023/08/18 05:14:33;;;;;;;5.93;5.43;;;16.90;99.90;;;17.52;100.00;97936.72;10358338;28;20717;-68
2023/08/18 05:19:36;;;;;;;6.90;5.30;;;16.70;99.90;;;17.48;100.00;97934.88;10354721;28;20587;-68
2023/08/18 05:24:39;;;;;;;5.70;4.93;;;16.80;99.90;;;17.77;100.00;97937.47;10357118;28;20585;-68
2023/08/18 05:29:44;;;;;;;5.63;4.97;;;17.10;99.90;;;18.34;100.00;97947.78;10361823;28;20237;-68
2023/08/18 05:34:47;;;;;;;8.57;5.72;;;17.60;99.90;;;19.32;97.34;97950.34;10344708;28;20230;-68
2023/08/18 05:39:50;;;;;;;6.95;5.07;;;18.40;99.90;;;19.98;92.67;97953.59;10355630;28;20226;-67
2023/08/18 05:44:54;;;;;;;5.22;4.72;;;19.40;99.90;;;20.86;87.90;97948.41;10351934;28;20886;-67
2023/08/18 05:49:59;;;;;;;5.00;4.60;;;20.40;99.90;;;21.85;83.84;97941.34;10357591;28;20239;-68
2023/08/18 05:55:04;;;;;;;4.30;3.92;;;21.30;99.90;;;22.34;77.27;97943.72;10350900;28;20321;-68
2023/08/18 06:00:13;;;;;;;5.13;4.63;;;21.70;99.90;;;22.95;75.92;97952.25;10350319;28;20348;-68
2023/08/18 06:05:16;;;;;;;5.90;3.67;;;21.90;99.90;;;23.48;74.95;97950.94;10350580;28;20317;-68
2023/08/18 06:10:19;;;;;;;4.60;3.60;;;22.40;99.90;;;24.01;70.38;97942.63;10354003;28;20608;-68
2023/08/18 06:15:24;;;;;;;5.30;3.40;;;22.50;99.90;;;24.83;68.18;97949.00;10355181;28;20487;-68
2023/08/18 06:20:28;;;;;;;4.25;3.85;;;22.90;99.90;;;25.55;64.34;97952.56;10356281;28;20228;-68
2023/08/18 06:25:31;;;;;;;4.10;3.70;;;23.20;99.90;;;25.71;63.97;97957.78;10360375;28;20229;-68
2023/08/18 06:30:35;;;;;;;3.53;3.22;;;23.30;99.90;;;25.60;60.24;97949.94;10355324;28;20580;-68
2023/08/18 06:35:38;;;;;;;3.50;3.20;;;23.40;99.90;;;26.22;58.25;97950.69;10354621;28;20717;-69
2023/08/18 06:40:45;;;;;;;3.33;3.00;;;24.10;99.90;;;26.16;58.26;97950.72;10358373;28;20293;-68
2023/08/18 06:45:50;;;;;;;3.65;3.35;;;24.00;99.90;;;26.92;58.64;97955.56;10348153;28;20622;-67
2023/08/18 06:50:53;;;;;;;3.70;3.40;;;24.90;99.90;;;27.35;58.24;97959.69;10355777;28;20230;-69
2023/08/18 06:55:57;;;;;;;3.40;3.10;;;25.20;99.90;;;27.73;56.40;97959.34;10356892;28;20353;-69
2023/08/18 07:01:06;;;;;;;4.72;3.00;;;25.50;99.90;;;27.82;56.55;97955.78;10354359;28;20653;-69
2023/08/18 07:06:10;;;;;;;5.82;3.50;;;26.10;99.90;;;28.53;55.55;97955.88;10353576;28;20501;-69
2023/08/18 07:11:13;;;;;;;4.95;3.15;;;26.30;99.90;;;28.96;55.00;97950.00;10357096;28;20693;-69
2023/08/18 07:16:17;;;;;;;4.63;2.90;;;26.80;99.90;;;29.07;54.62;97955.97;10358224;28;20234;-70
2023/08/18 07:21:20;;;;;;;3.17;2.88;;;27.00;99.90;;;29.67;51.88;97954.16;10353847;28;20228;-68
2023/08/18 07:26:23;;;;;;;4.25;2.72;;;27.70;99.90;;;30.38;52.51;97951.91;10361489;28;20607;-69
2023/08/18 07:31:28;;;;;;;2.63;2.42;;;28.20;99.90;;;30.98;45.37;97956.78;10357433;28;20624;-68
2023/08/18 07:36:32;;;;;;;2.90;2.20;;;28.40;99.90;;;30.93;45.68;97956.03;10361708;28;20234;-69
2023/08/18 07:41:35;;;;;;;4.05;2.15;;;28.20;99.90;;;31.55;43.34;97957.22;10361930;28;20613;-68
2023/08/18 07:46:40;;;;;;;2.83;2.10;;;28.90;99.10;;;32.08;42.42;97958.47;10361920;28;20236;-69
2023/08/18 07:51:43;;;;;;;2.67;1.98;;;29.10;98.40;;;31.19;42.16;97957.16;10364217;28;20253;-68
2023/08/18 07:56:46;;;;;;;3.97;2.33;;;29.00;96.50;;;30.85;42.15;97959.72;10363161;28;20574;-69
2023/08/18 08:01:50;;;;;;;4.93;2.00;;;28.80;96.30;;;31.44;43.44;97965.41;10359795;28;20222;-68
2023/08/18 08:06:56;;;;;;;2.40;2.20;;;29.60;96.90;;;31.02;44.65;97962.00;10351675;28;20226;-68
2023/08/18 08:11:59;;;;;;;2.97;2.20;;;29.60;96.70;;;31.35;42.39;97961.22;10364654;28;20226;-67
2023/08/18 08:17:04;;;;;;;2.20;2.05;;;29.90;94.70;;;31.33;43.64;97952.41;10360828;28;20224;-67
2023/08/18 08:22:11;;;;;;;2.10;1.80;;;30.10;94.80;;;31.17;43.49;97951.94;10356646;28;20225;-68
2023/08/18 08:27:15;;;;;;;2.17;1.98;;;29.90;95.10;;;31.23;43.15;97948.28;10362338;28;20612;-68
2023/08/18 08:32:19;;;;;;;2.38;2.15;;;30.00;94.10;;;31.13;43.09;97949.41;10360595;28;20304;-69
2023/08/18 08:37:23;;;;;;;2.17;1.98;;;30.10;93.70;;;31.16;39.79;97951.97;10353314;28;20249;-68
2023/08/18 08:42:26;;;;;;;2.90;1.90;;;30.30;91.40;;;31.05;42.24;97960.16;10360181;28;20234;-68
2023/08/18 08:47:31;;;;;;;3.03;2.00;;;30.10;92.90;;;31.31;41.62;97951.59;10355955;28;20675;-68
2023/08/18 08:52:39;;;;;;;2.03;1.80;;;30.50;92.20;;;31.77;40.35;97950.47;10358503;28;20226;-68
2023/08/18 08:57:48;;;;;;;2.70;1.60;;;31.10;91.60;;;31.74;40.79;97950.53;10357049;28;20740;-68
2023/08/18 09:02:53;;;;;;;2.13;1.75;;;31.10;91.80;;;31.69;40.84;97949.78;10358149;28;20233;-68
2023/08/18 09:07:57;;;;;;;1.98;1.80;;;31.00;90.80;;;31.25;41.01;97945.59;10358351;28;20229;-67
2023/08/18 09:13:00;;;;;;;3.25;1.70;;;30.50;91.00;;;30.76;40.30;97944.94;10354300;28;20226;-67
2023/08/18 09:18:06;;;;;;;2.80;1.60;;;30.20;90.60;;;31.13;38.85;97949.41;10358126;28;20232;-67
2023/08/18 09:23:10;;;;;;;1.88;1.70;;;30.60;87.80;;;31.19;40.47;97959.81;10357042;28;20269;-68
2023/08/18 09:28:13;;;;;;;2.30;1.55;;;30.80;90.10;;;31.53;38.59;97948.44;10358823;28;20230;-67
2023/08/18 09:33:25;;;;;;;3.38;1.95;;;31.20;87.50;;;31.59;38.92;97943.88;10358025;28;20229;-67
2023/08/18 09:38:30;;;;;;;1.95;1.52;;;31.10;87.30;;;31.87;39.83;97943.13;10354040;28;20218;-68
2023/08/18 09:43:39;;;;;;;1.80;1.40;;;31.40;89.30;;;31.96;38.22;97942.03;10357833;28;20253;-68
2023/08/18 09:48:47;;;;;;;2.35;1.70;;;31.60;86.20;;;31.98;37.93;97949.03;10356780;28;20236;-68
2023/08/18 09:53:58;;;;;;;1.85;1.60;;;31.50;85.90;;;32.02;38.34;97944.53;10358753;28;20233;-67
2023/08/18 09:59:13;;;;;;;1.90;1.80;;;31.60;86.30;;;32.02;39.10;97942.78;10353955;28;20316;-68
2023/08/18 10:04:23;;;;;;;1.95;1.60;;;31.50;86.60;;;32.20;38.23;97936.09;10347873;28;20261;-68
2023/08/18 10:09:33;;;;;;;1.95;1.65;;;31.70;85.70;;;31.76;38.68;97935.47;10352607;28;20265;-68
2023/08/18 10:14:37;;;;;;;2.22;1.80;;;31.20;86.10;;;31.73;37.23;97934.72;10351579;28;20225;-68
2023/08/18 10:19:49;;;;;;;1.83;1.73;;;31.40;82.90;;;31.75;38.00;97927.63;10350406;28;20469;-68
2023/08/18 10:24:54;;;;;;;2.15;1.50;;;31.30;84.40;;;31.74;37.82;97926.75;10406590;23;20256;-70
2023/08/18 10:29:58;;;;;;;2.08;1.98;;;31.40;84.50;;;31.56;38.76;97927.22;10434896;28;20220;-70
2023/08/18 10:35:23;;;;;;;2.10;2.00;;;31.10;86.50;;;31.79;39.00;97918.69;10432820;28;20239;-70
2023/08/18 10:40:29;;;;;;;2.45;1.83;;;31.20;86.20;;;31.74;37.39;97916.19;10431539;28;20224;-70
2023/08/18 10:45:33;;;;;;;2.95;2.00;;;31.20;83.70;;;31.39;38.31;97915.34;10426534;28;21021;-70
2023/08/18 10:50:40;;;;;;;1.73;1.63;;;30.80;84.60;;;31.06;38.22;97916.13;10432173;28;20225;-70
2023/08/18 10:55:44;;;;;;;2.08;1.90;;;30.50;83.60;;;31.27;38.82;97910.31;10427234;28;20225;-69
2023/08/18 11:00:47;;;;;;;2.10;1.90;;;30.80;84.80;;;31.21;39.12;97907.81;10425561;28;20228;-69
2023/08/18 11:05:52;;;;;;;2.17;1.98;;;30.80;85.10;;;31.39;39.72;97896.84;10428417;28;20233;-69
2023/08/18 11:10:57;;;;;;;2.63;1.63;;;30.90;87.20;;;31.51;37.41;97910.63;10431222;28;20986;-69
2023/08/18 11:16:00;;;;;;;1.70;1.60;;;31.10;82.00;;;31.41;37.61;97900.28;10429782;28;20585;-68
2023/08/18 11:21:05;;;;;;;1.70;1.60;;;30.90;83.30;;;31.41;38.46;97889.72;10429048;28;20221;-69
2023/08/18 11:26:09;;;;;;;2.00;1.90;;;30.90;84.10;;;31.42;38.49;97883.53;10423762;28;20232;-70
2023/08/18 11:31:13;;;;;;;2.92;1.90;;;30.90;83.90;;;31.15;39.52;97886.84;10432714;28;20734;-69
2023/08/18 11:36:18;;;;;;;2.22;1.67;;;30.70;85.30;;;31.33;39.70;97883.72;10429319;28;20228;-69
2023/08/18 11:41:21;;;;;;;1.80;1.48;;;30.80;86.10;;;31.27;38.96;97870.69;10429798;28;20729;-69
2023/08/18 11:46:24;;;;;;;1.80;1.70;;;30.80;84.80;;;31.17;38.79;97879.75;10429113;28;20600;-69
2023/08/18 11:51:31;;;;;;;2.00;1.90;;;30.60;84.30;;;31.00;40.05;97877.53;10424120;28;20231;-69
2023/08/18 11:56:38;;;;;;;2.17;1.98;;;30.40;86.70;;;30.87;38.85;97869.03;10428930;28;20228;-69
2023/08/18 12:01:41;;;;;;;1.85;1.75;;;30.30;84.60;;;31.07;38.22;97865.03;10420940;28;20236;-69
2023/08/18 12:06:45;;;;;;;2.75;1.80;;;30.50;83.60;;;31.14;38.82;97871.91;10427550;28;20271;-68
2023/08/18 12:11:49;;;;;;;2.10;1.90;;;30.50;84.70;;;31.14;39.40;97866.63;10430957;28;20625;-69
2023/08/18 12:16:52;;;;;;;1.80;1.70;;;30.50;85.80;;;31.08;39.88;97864.16;10437557;28;20239;-69
2023/08/18 12:21:56;;;;;;;2.17;1.80;;;30.40;85.70;;;30.94;38.93;97859.22;10432021;28;20307;-69
2023/08/18 12:27:00;;;;;;;1.63;1.42;;;30.30;84.60;;;31.01;38.62;97852.00;10435615;28;20225;-69
2023/08/18 12:32:04;;;;;;;1.90;1.80;;;30.50;83.80;;;30.92;38.44;97843.38;10436116;28;20229;-69
2023/08/18 12:37:08;;;;;;;2.03;1.88;;;30.30;83.60;;;31.29;38.59;97841.59;10434164;28;20449;-69
2023/08/18 12:42:11;;;;;;;1.77;1.67;;;30.60;84.20;;;31.35;39.32;97839.69;10434616;28;20231;-70
2023/08/18 12:47:14;;;;;;;1.80;1.70;;;30.70;84.70;;;31.07;40.01;97846.56;10436056;28;20224;-69
2023/08/18 12:52:19;;;;;;;2.13;1.92;;;30.40;86.00;;;31.27;38.94;97846.91;10430769;28;20225;-69
2023/08/18 12:57:22;;;;;;;2.13;1.65;;;30.60;84.30;;;31.27;39.16;97849.53;10431124;28;20610;-68
2023/08/18 13:02:26;;;;;;;2.88;2.20;;;30.60;84.80;;;31.05;39.52;97851.00;10429843;28;20225;-69
2023/08/18 13:07:30;;;;;;;2.50;1.90;;;30.50;85.20;;;31.16;39.21;97848.94;10429734;28;20683;-69
2023/08/18 13:12:33;;;;;;;2.08;1.90;;;30.50;84.80;;;31.26;38.96;97837.25;10436272;28;20225;-68
2023/08/18 13:17:37;;;;;;;2.67;1.80;;;30.70;84.00;;;31.09;38.25;97850.03;10433323;28;20232;-68
2023/08/18 13:22:42;;;;;;;2.28;1.80;;;30.60;82.60;;;31.23;38.21;97845.25;10430802;28;20307;-70
2023/08/18 13:27:46;;;;;;;1.90;1.80;;;30.50;83.30;;;31.23;38.46;97854.97;10425456;28;20750;-68
2023/08/18 13:32:49;;;;;;;2.65;1.83;;;30.50;83.90;;;31.15;39.05;97848.09;10427570;28;20230;-68
2023/08/18 13:37:53;;;;;;;2.42;2.22;;;30.50;84.10;;;31.18;38.50;97841.88;10416355;28;20225;-68
2023/08/18 13:42:56;;;;;;;3.40;2.00;;;30.60;83.30;;;31.49;38.68;97846.38;10429261;28;20244;-68
2023/08/18 13:47:59;;;;;;;2.10;1.90;;;30.80;83.60;;;31.26;38.16;97834.63;10425809;28;20243;-68
2023/08/18 13:53:11;;;;;;;2.25;1.83;;;30.70;82.30;;;31.25;39.31;97835.53;10431440;28;20233;-68
2023/08/18 13:58:14;;;;;;;2.28;1.70;;;30.60;83.60;;;31.28;39.35;97832.81;10433327;28;20228;-69
2023/08/18 14:03:17;;;;;;;1.80;1.70;;;30.50;84.60;;;31.44;37.69;97829.78;10433243;28;20224;-69
2023/08/18 14:08:23;;;;;;;1.77;1.67;;;30.60;82.70;;;31.41;37.25;97834.22;10421750;28;20231;-69
2023/08/18 14:13:26;;;;;;;2.00;1.80;;;30.50;81.90;;;31.43;37.44;97821.00;10425378;28;20240;-70
2023/08/18 14:18:29;;;;;;;1.98;1.85;;;30.60;81.20;;;31.54;37.67;97826.84;10437889;28;20234;-69
2023/08/18 14:23:34;;;;;;;2.67;2.47;;;30.60;82.50;;;31.16;37.68;97818.16;10422598;28;20229;-68
2023/08/18 14:28:37;;;;;;;2.45;1.98;;;30.40;81.70;;;31.46;38.01;97814.75;10425387;28;20224;-68
2023/08/18 14:33:40;;;;;;;2.30;1.83;;;30.70;81.90;;;31.40;36.38;97799.94;10434493;28;20581;-68
2023/08/18 14:38:50;;;;;;;4.57;2.20;;;30.70;80.00;;;31.35;36.09;97809.72;10438814;28;20225;-68
2023/08/18 14:43:53;;;;;;;2.25;2.00;;;30.60;79.00;;;31.62;36.48;97805.47;10432268;28;20224;-69
2023/08/18 14:48:56;;;;;;;2.72;2.28;;;30.80;80.70;;;31.58;35.63;97801.19;10437885;28;20322;-68
2023/08/18 14:54:01;;;;;;;2.55;2.25;;;30.90;79.00;;;31.46;36.13;97806.81;10438759;28;20256;-68
2023/08/18 14:59:04;;;;;;;2.58;1.90;;;30.80;78.80;;;31.40;37.17;97808.72;10429258;28;20235;-69
2023/08/18 15:04:07;;;;;;;3.58;2.08;;;30.70;80.30;;;31.51;37.10;97804.94;10440911;28;20282;-70
2023/08/18 15:09:12;;;;;;;2.80;1.90;;;30.70;80.00;;;31.61;37.48;97794.03;10439887;28;20249;-69
2023/08/18 15:14:15;;;;;;;2.67;2.20;;;30.80;80.80;;;31.61;37.31;97787.88;10439449;28;20589;-69
2023/08/18 15:19:18;;;;;;;4.90;2.03;;;30.90;80.40;;;31.78;37.06;97796.19;10433892;28;20228;-68
2023/08/18 15:24:22;;;;;;;2.28;2.05;;;30.90;80.80;;;31.65;37.38;97784.25;10439203;28;20221;-69
2023/08/18 15:29:26;;;;;;;3.65;2.47;;;30.90;81.30;;;31.55;37.92;97783.63;10439985;28;20730;-68
2023/08/18 15:34:30;;;;;;;2.75;2.05;;;30.80;81.60;;;31.70;38.13;97786.75;10428252;28;20236;-69
2023/08/18 15:39:34;;;;;;;3.70;2.33;;;30.90;82.70;;;31.42;37.61;97788.41;10435455;28;20229;-69
2023/08/18 15:44:38;;;;;;;4.40;2.58;;;30.70;81.00;;;31.51;37.71;97781.16;10438489;28;20240;-69
2023/08/18 15:49:41;;;;;;;3.85;2.25;;;30.80;80.90;;;31.44;37.90;97790.13;10427969;28;20720;-69
2023/08/18 15:54:45;;;;;;;2.38;2.13;;;30.70;81.60;;;31.40;38.59;97779.66;10424802;28;20233;-70
2023/08/18 15:59:48;;;;;;;2.78;2.00;;;30.60;82.20;;;31.33;39.15;97783.31;10444215;28;20650;-68
2023/08/18 16:04:51;;;;;;;4.68;2.60;;;30.50;83.30;;;31.17;39.43;97772.31;10435928;28;20224;-68
2023/08/18 16:09:56;;;;;;;4.50;2.75;;;30.40;83.80;;;31.31;39.67;97774.59;10436041;28;20216;-69
2023/08/18 16:14:59;;;;;;;2.72;2.53;;;30.30;84.40;;;31.26;39.59;97770.34;10432558;28;20225;-69
2023/08/18 16:20:22;;;;;;;2.78;2.40;;;30.30;84.40;;;31.21;39.66;97778.38;10429299;28;20263;-69
2023/08/18 16:25:27;;;;;;;2.60;2.40;;;30.20;84.80;;;31.35;39.32;97773.63;10442765;22;20255;-69
2023/08/18 16:30:30;;;;;;;4.18;2.63;;;30.50;84.00;;;31.20;39.35;97766.97;10401670;28;20229;-67
2023/08/18 16:35:33;;;;;;;2.92;2.55;;;30.40;83.90;;;30.96;40.82;97773.78;10406801;28;20243;-67
2023/08/18 16:40:37;;;;;;;3.95;2.50;;;30.10;85.80;;;31.09;40.57;97776.94;10397537;28;20244;-68
2023/08/18 16:45:40;;;;;;;3.08;2.78;;;30.20;85.80;;;30.89;41.14;97773.97;10391054;28;20709;-68
2023/08/18 16:50:44;;;;;;;2.72;2.50;;;30.10;86.30;;;30.87;41.76;97781.91;10391134;28;20236;-69
2023/08/18 16:55:49;;;;;;;2.95;2.65;;;30.00;87.40;;;30.90;41.17;97773.91;10387956;28;20240;-68
2023/08/18 17:00:52;;;;;;;2.72;2.28;;;30.10;86.60;;;30.72;42.20;97769.06;10387473;28;20701;-68
2023/08/18 17:05:55;;;;;;;3.35;2.65;;;29.80;87.80;;;30.79;42.44;97775.97;10387207;28;20731;-68
2023/08/18 17:11:00;;;;;;;3.30;2.50;;;29.80;88.70;;;30.72;42.14;97779.63;10407137;28;20768;-68
2023/08/18 17:16:03;;;;;;;3.03;2.63;;;29.80;88.10;;;30.55;42.26;97784.47;10395351;28;20233;-68
2023/08/18 17:21:06;;;;;;;4.90;2.15;;;29.70;88.30;;;30.70;41.82;97784.06;10398225;28;20739;-68
2023/08/18 17:26:11;;;;;;;3.28;2.25;;;29.80;87.70;;;30.52;43.63;97773.06;10377633;28;20249;-69
2023/08/18 17:31:14;;;;;;;3.28;2.53;;;29.70;90.00;;;30.25;44.35;97781.66;10399067;28;20225;-68
2023/08/18 17:36:17;;;;;;;2.60;2.40;;;29.30;90.90;;;29.99;46.77;97777.81;10382695;28;20295;-68
2023/08/18 17:41:22;;;;;;;2.92;2.65;;;28.90;92.60;;;29.73;48.40;97774.84;10385059;28;20227;-68
2023/08/18 17:46:25;;;;;;;2.63;2.42;;;28.70;93.70;;;29.53;48.81;97778.75;10403398;28;20229;-68
2023/08/18 17:51:28;;;;;;;3.97;2.75;;;28.50;93.80;;;29.41;49.95;97784.22;10402579;28;20234;-68
2023/08/18 17:56:32;;;;;;;3.65;3.05;;;28.30;95.30;;;29.21;51.58;97786.38;10393013;28;20246;-69
2023/08/18 18:01:36;;;;;;;3.53;2.80;;;28.10;96.50;;;28.96;52.69;97782.41;10395852;28;20260;-67
2023/08/18 18:06:39;;;;;;;4.78;2.90;;;27.90;97.70;;;28.67;54.75;97785.53;10389635;28;20316;-67
2023/08/18 18:11:43;;;;;;;4.28;2.90;;;27.60;99.20;;;28.33;56.85;97784.28;10390845;28;20465;-68
2023/08/18 18:16:46;;;;;;;2.97;2.65;;;27.20;99.90;;;28.10;58.97;97782.88;10398723;28;20978;-67
2023/08/18 18:21:49;;;;;;;5.70;3.10;;;27.00;99.90;;;27.90;59.57;97780.53;10396412;28;20711;-66
2023/08/18 18:26:54;;;;;;;3.17;2.90;;;26.70;99.90;;;27.68;60.77;97781.66;10392615;28;20245;-67
2023/08/18 18:31:57;;;;;;;4.22;3.30;;;26.60;99.90;;;27.44;61.86;97786.28;10392011;28;20236;-67
2023/08/18 18:37:00;;;;;;;5.47;3.10;;;26.30;99.90;;;27.14;63.14;97783.09;10400256;28;20244;-67
2023/08/18 18:42:05;;;;;;;4.93;3.10;;;26.00;99.90;;;26.94;65.41;97791.16;10394294;28;20782;-68
2023/08/18 18:47:09;;;;;;;3.38;3.08;;;25.80;99.90;;;26.67;64.43;97799.25;10391427;28;20252;-67
2023/08/18 18:52:13;;;;;;;3.40;3.10;;;25.50;99.90;;;26.38;65.88;97808.16;10393387;28;20371;-68
2023/08/18 18:57:17;;;;;;;4.03;3.15;;;25.30;99.90;;;26.24;66.29;97815.25;10394623;28;20612;-68
2023/08/18 19:02:21;;;;;;;4.47;3.25;;;25.20;99.90;;;26.04;66.89;97824.13;10372303;28;20226;-67
2023/08/18 19:07:24;;;;;;;5.82;3.25;;;25.00;99.90;;;25.87;67.43;97827.69;10390248;28;20229;-67
2023/08/18 19:12:30;;;;;;;4.55;3.30;;;24.90;99.90;;;25.79;68.57;97831.19;10395417;28;20220;-68
2023/08/18 19:17:34;;;;;;;4.05;2.70;;;24.80;99.90;;;25.70;68.55;97844.31;10389552;28;20236;-67
2023/08/18 19:22:37;;;;;;;3.70;3.40;;;24.70;99.90;;;25.57;69.64;97839.97;10389655;28;20322;-67
2023/08/18 19:27:42;;;;;;;6.47;3.92;;;24.60;99.90;;;25.41;69.91;97839.16;10372999;28;20234;-67
2023/08/18 19:32:45;;;;;;;4.25;3.42;;;24.40;99.90;;;25.28;70.32;97838.31;10393733;28;20217;-67
2023/08/18 19:37:48;;;;;;;3.85;3.20;;;24.30;99.90;;;25.22;70.92;97853.16;10394382;28;20251;-67
2023/08/18 19:42:53;;;;;;;5.43;3.42;;;24.20;99.90;;;25.03;71.87;97844.41;10400845;28;20229;-67
2023/08/18 19:47:56;;;;;;;3.88;3.40;;;24.00;99.90;;;24.83;73.17;97844.41;10398088;28;20712;-67
2023/08/18 19:52:59;;;;;;;3.80;3.50;;;23.80;99.90;;;24.73;73.23;97844.41;10371450;28;20269;-69
2023/08/18 19:58:04;;;;;;;5.20;3.65;;;23.70;99.90;;;24.65;73.38;97840.91;10372534;28;20463;-67
2023/08/18 20:03:08;;;;;;;4.30;3.78;;;23.60;99.90;;;24.47;73.86;97846.13;10390787;28;20730;-67
2023/08/18 20:08:11;;;;;;;5.82;3.95;;;23.50;99.90;;;24.37;74.22;97839.97;10395058;28;20299;-68
2023/08/18 20:13:16;;;;;;;5.00;3.40;;;23.40;99.90;;;24.27;74.97;97839.09;10392502;28;20764;-67
2023/08/18 20:18:19;;;;;;;5.13;3.58;;;23.40;99.90;;;24.13;76.13;97834.72;10401377;28;20237;-67
2023/08/18 20:23:22;;;;;;;4.90;3.85;;;23.20;99.90;;;24.07;76.11;97835.56;10381931;28;20712;-68
2023/08/18 20:28:26;;;;;;;3.78;3.47;;;23.20;99.90;;;24.06;76.04;97833.78;10376019;28;20230;-68
2023/08/18 20:33:30;;;;;;;4.13;3.70;;;23.10;99.90;;;24.02;76.55;97837.28;10403314;28;20233;-68
2023/08/18 20:38:33;;;;;;;4.55;3.70;;;23.10;99.90;;;23.76;78.06;97840.66;10400876;28;20605;-68
2023/08/18 20:43:41;;;;;;;4.72;4.13;;;22.90;99.90;;;23.72;78.16;97836.31;10403065;28;20328;-69
2023/08/18 20:48:44;;;;;;;4.22;3.58;;;22.80;99.90;;;23.65;78.48;97847.53;10405160;28;20230;-69
2023/08/18 20:53:49;;;;;;;3.60;3.30;;;22.70;99.90;;;23.63;78.78;97853.59;10401790;28;20264;-69
2023/08/18 20:58:53;;;;;;;4.35;3.83;;;22.70;99.90;;;23.46;79.47;97856.13;10406698;28;20229;-69